Terminal Aerodrome Forecast
Issued by NWS Charleston, WV

Home | Current Version | Previous Version | Text Only | Print | Product List | Glossary On
Versions: 1 2 3 4 5 6 7 8 9 10 11 12 13 14 15 16 17 18 19 20 21 22 23
000
FTUS41 KRLX 301700
TAFEKN
TAF
KEKN 301727Z 3018/3118 00000KT P6SM OVC035
     FM310400 00000KT P6SM BKN030
     FM310800 00000KT 5SM BR BKN030
     FM311400 00000KT P6SM BKN030=

USA.gov is the U.S. government's official web portal to all federal, state and local government web resources and services.